Time;durP1;ratioP1;P1;durP2;ratioP2;P2;SDS_P1;SDS_P2;PMS_P1;PMS_P2;Temp;Humidity;BMP_temperature;BMP_pressure;BME280_temperature;BME280_humidity;BME280_pressure;Samples;Min_cycle;Max_cycle;Signal;HPM_P1;HPM_P2
2021/09/25 00:01:08;;;;;;;15.43;10.13;;;13.60;99.90;;;;;;5006018;28;20202;-66
2021/09/25 00:03:34;;;;;;;10.87;9.83;;;13.60;99.90;;;;;;4993633;28;20191;-66
2021/09/25 00:05:59;;;;;;;9.40;8.50;;;13.60;99.90;;;;;;4999726;28;20217;-66
2021/09/25 00:08:25;;;;;;;11.07;9.37;;;13.60;99.90;;;;;;5001687;28;20193;-65
2021/09/25 00:10:50;;;;;;;13.33;10.30;;;13.60;99.90;;;;;;5002648;28;20181;-66
2021/09/25 00:13:16;;;;;;;12.03;10.77;;;13.50;99.90;;;;;;5016000;28;20208;-66
2021/09/25 00:15:41;;;;;;;15.57;13.60;;;13.40;99.90;;;;;;5013348;28;20228;-66
2021/09/25 00:18:08;;;;;;;14.63;11.47;;;13.40;99.90;;;;;;5006523;28;20629;-66
2021/09/25 00:20:36;;;;;;;10.40;9.07;;;13.20;99.90;;;;;;5007565;28;20196;-66
2021/09/25 00:23:02;;;;;;;10.03;8.97;;;13.20;99.90;;;;;;5012255;28;20433;-66
2021/09/25 00:25:28;;;;;;;9.03;8.23;;;13.30;99.90;;;;;;4993828;28;20446;-66
2021/09/25 00:27:53;;;;;;;9.50;8.70;;;13.30;99.90;;;;;;4997397;28;20190;-66
2021/09/25 00:30:19;;;;;;;10.30;9.20;;;13.30;99.90;;;;;;5001503;28;20651;-66
2021/09/25 00:32:45;;;;;;;8.80;8.00;;;13.30;99.90;;;;;;4993143;28;20586;-66
2021/09/25 00:35:12;;;;;;;10.37;9.47;;;13.40;99.90;;;;;;4993639;28;20469;-66
2021/09/25 00:37:38;;;;;;;9.10;8.23;;;13.30;99.90;;;;;;4993296;28;20174;-66
2021/09/25 00:40:05;;;;;;;9.67;8.70;;;13.30;99.90;;;;;;4993329;28;20513;-66
2021/09/25 00:42:31;;;;;;;11.07;9.30;;;13.30;99.90;;;;;;4993348;28;20935;-66
2021/09/25 00:44:57;;;;;;;10.87;9.10;;;13.30;99.90;;;;;;4993495;28;20422;-66
2021/09/25 00:47:22;;;;;;;8.63;7.83;;;13.20;99.90;;;;;;4993302;28;20513;-66
2021/09/25 00:49:48;;;;;;;9.40;8.50;;;13.20;99.90;;;;;;4993319;28;20179;-66
2021/09/25 00:52:14;;;;;;;11.13;10.03;;;13.20;99.90;;;;;;4992051;28;20242;-66
2021/09/25 00:54:40;;;;;;;10.83;9.60;;;13.10;99.90;;;;;;4990840;28;20258;-66
2021/09/25 00:57:05;;;;;;;12.30;9.30;;;13.20;99.90;;;;;;5002657;28;20199;-66
2021/09/25 00:59:33;;;;;;;10.53;9.50;;;13.20;99.90;;;;;;5001886;28;20426;-66
2021/09/25 01:01:59;;;;;;;11.67;10.47;;;13.30;99.90;;;;;;5012698;28;20786;-66
2021/09/25 01:04:24;;;;;;;11.93;9.67;;;13.20;99.90;;;;;;5003929;28;20478;-66
2021/09/25 01:06:50;;;;;;;11.27;9.90;;;13.20;99.90;;;;;;5008051;28;20205;-66
2021/09/25 01:09:16;;;;;;;11.77;10.20;;;13.10;99.90;;;;;;4996221;28;20569;-66
2021/09/25 01:11:42;;;;;;;11.07;9.53;;;13.20;99.90;;;;;;4996925;28;20209;-66
2021/09/25 01:14:08;;;;;;;10.33;9.37;;;13.10;99.90;;;;;;5001571;28;20421;-66
2021/09/25 01:16:34;;;;;;;10.30;9.40;;;13.10;99.90;;;;;;5009840;28;20951;-66
2021/09/25 01:19:00;;;;;;;17.63;12.43;;;13.10;99.90;;;;;;4992598;28;20426;-66
2021/09/25 01:21:26;;;;;;;10.80;9.70;;;13.10;99.90;;;;;;5001712;28;20650;-66
2021/09/25 01:23:52;;;;;;;10.33;9.30;;;13.10;99.90;;;;;;4992475;28;20439;-66
2021/09/25 01:26:20;;;;;;;10.37;9.37;;;13.00;99.90;;;;;;4993521;28;20437;-66
2021/09/25 01:28:47;;;;;;;9.43;8.53;;;12.90;99.90;;;;;;4992011;28;20238;-66
2021/09/25 01:31:14;;;;;;;11.23;9.10;;;13.00;99.90;;;;;;4992201;28;20430;-66
2021/09/25 01:33:42;;;;;;;15.20;9.37;;;13.00;99.90;;;;;;4992202;28;20561;-67
2021/09/25 01:36:10;;;;;;;9.37;8.43;;;13.00;99.90;;;;;;4992662;28;20457;-66
2021/09/25 01:38:36;;;;;;;11.00;9.90;;;13.00;99.90;;;;;;4992566;28;20423;-66
2021/09/25 01:41:02;;;;;;;9.50;8.53;;;12.90;99.90;;;;;;4992759;28;20421;-66
2021/09/25 01:43:29;;;;;;;8.77;7.87;;;12.90;99.90;;;;;;4992652;28;20853;-66
2021/09/25 01:45:56;;;;;;;10.20;9.20;;;12.90;99.90;;;;;;4992653;28;20437;-66
2021/09/25 01:48:22;;;;;;;9.87;8.87;;;12.90;99.90;;;;;;4992121;28;20465;-66
2021/09/25 01:50:48;;;;;;;8.20;7.40;;;12.90;99.90;;;;;;4992618;28;20426;-66
2021/09/25 01:53:13;;;;;;;9.93;8.97;;;12.90;99.90;;;;;;4992579;28;20264;-66
2021/09/25 01:55:39;;;;;;;9.57;8.10;;;12.90;99.90;;;;;;4992422;28;20203;-66
2021/09/25 01:58:05;;;;;;;10.70;9.07;;;12.90;99.90;;;;;;4992249;28;20540;-66
2021/09/25 02:00:34;;;;;;;9.73;8.73;;;12.90;99.90;;;;;;4992531;28;20167;-66
2021/09/25 02:03:00;;;;;;;10.20;9.20;;;12.80;99.90;;;;;;4992318;28;20191;-67
2021/09/25 02:05:26;;;;;;;8.90;8.00;;;12.70;99.90;;;;;;4992147;28;20539;-67
2021/09/25 02:07:52;;;;;;;9.67;8.67;;;12.70;99.90;;;;;;4992406;28;20928;-66
2021/09/25 02:10:17;;;;;;;10.70;9.30;;;12.70;99.90;;;;;;4992236;28;20642;-66
2021/09/25 02:12:44;;;;;;;9.57;8.43;;;12.70;99.90;;;;;;4992006;28;20500;-66
2021/09/25 02:15:10;;;;;;;12.60;9.47;;;12.60;99.90;;;;;;4991922;28;20199;-66
2021/09/25 02:17:36;;;;;;;12.20;9.10;;;12.60;99.90;;;;;;4988509;28;20470;-66
2021/09/25 02:20:03;;;;;;;9.60;8.63;;;12.70;99.90;;;;;;4973072;28;20443;-67
2021/09/25 02:22:29;;;;;;;10.70;9.60;;;12.60;99.90;;;;;;4981462;28;20631;-66
2021/09/25 02:24:54;;;;;;;9.10;8.20;;;12.60;99.90;;;;;;4992441;28;20427;-66
2021/09/25 02:27:20;;;;;;;9.00;8.10;;;12.60;99.90;;;;;;4993207;28;20182;-66
2021/09/25 02:29:45;;;;;;;9.37;8.47;;;12.50;99.90;;;;;;4996036;28;20183;-66
2021/09/25 02:32:11;;;;;;;9.90;8.53;;;12.50;99.90;;;;;;4995595;28;20220;-67
2021/09/25 02:34:37;;;;;;;8.80;7.90;;;12.50;99.90;;;;;;4995929;28;20172;-66
2021/09/25 02:37:05;;;;;;;9.43;8.47;;;12.50;99.90;;;;;;4995741;28;20183;-66
2021/09/25 02:39:32;;;;;;;9.60;8.70;;;12.50;99.90;;;;;;4995440;28;20426;-66
2021/09/25 02:41:58;;;;;;;8.33;7.30;;;12.50;99.90;;;;;;4995783;28;20442;-66
2021/09/25 02:44:23;;;;;;;10.20;8.97;;;12.50;99.90;;;;;;4995478;28;20434;-66
2021/09/25 02:46:49;;;;;;;9.00;8.10;;;12.40;99.90;;;;;;4995619;28;20172;-67
2021/09/25 02:49:16;;;;;;;9.13;8.23;;;12.40;99.90;;;;;;4994860;28;20627;-66
2021/09/25 02:51:42;;;;;;;8.67;7.93;;;12.40;99.90;;;;;;4994974;28;20180;-66
2021/09/25 02:54:08;;;;;;;8.10;7.40;;;12.30;99.90;;;;;;4995082;28;20505;-66
2021/09/25 02:56:33;;;;;;;9.77;8.77;;;12.40;99.90;;;;;;4995397;28;20202;-66
2021/09/25 02:58:59;;;;;;;9.07;8.23;;;12.40;99.90;;;;;;4994647;28;20176;-66
2021/09/25 03:01:25;;;;;;;11.33;9.97;;;12.40;99.90;;;;;;4995292;28;20167;-66
2021/09/25 03:03:54;;;;;;;9.30;8.40;;;12.30;99.90;;;;;;4994918;28;20167;-66
2021/09/25 03:06:23;;;;;;;9.10;8.23;;;12.30;99.90;;;;;;4994879;28;20978;-66
2021/09/25 03:08:49;;;;;;;10.20;9.20;;;12.30;99.90;;;;;;4994684;28;20975;-66
2021/09/25 03:11:14;;;;;;;10.10;9.20;;;12.20;99.90;;;;;;4994357;28;20446;-66
2021/09/25 03:13:40;;;;;;;10.33;9.33;;;12.20;99.90;;;;;;4994697;28;20454;-66
2021/09/25 03:16:06;;;;;;;9.03;8.17;;;12.20;99.90;;;;;;4994547;28;20238;-66
2021/09/25 03:18:31;;;;;;;14.10;8.63;;;12.20;99.90;;;;;;4994536;28;20175;-66
2021/09/25 03:20:57;;;;;;;10.70;8.93;;;12.10;99.90;;;;;;4994849;28;20303;-66
2021/09/25 03:23:22;;;;;;;8.90;8.10;;;12.10;99.90;;;;;;4994151;28;20282;-66
2021/09/25 03:25:48;;;;;;;11.50;10.40;;;12.20;99.90;;;;;;4975549;28;20176;-67
2021/09/25 03:28:13;;;;;;;10.73;9.67;;;12.20;99.90;;;;;;4976753;28;20168;-66
2021/09/25 03:30:39;;;;;;;12.17;10.43;;;12.20;99.90;;;;;;4994750;28;20168;-66
2021/09/25 03:33:05;;;;;;;10.30;9.30;;;12.20;99.90;;;;;;4994434;28;20227;-66
2021/09/25 03:35:30;;;;;;;11.53;10.33;;;12.30;99.90;;;;;;4994175;28;20195;-66
2021/09/25 03:37:56;;;;;;;10.87;9.77;;;12.30;99.90;;;;;;4994139;28;20180;-66
2021/09/25 03:40:22;;;;;;;12.13;10.93;;;12.20;99.90;;;;;;4982892;28;20184;-66
2021/09/25 03:42:49;;;;;;;10.90;9.80;;;12.20;99.90;;;;;;4988717;28;20563;-67
2021/09/25 03:45:15;;;;;;;13.20;10.63;;;12.20;99.90;;;;;;4994300;28;20186;-66
2021/09/25 03:47:40;;;;;;;12.30;11.00;;;12.20;99.90;;;;;;4993951;28;20521;-66
2021/09/25 03:50:06;;;;;;;12.80;11.23;;;12.10;99.90;;;;;;4993912;28;20179;-66
2021/09/25 03:52:32;;;;;;;12.43;10.33;;;12.10;99.90;;;;;;4990909;28;20204;-66
2021/09/25 03:54:57;;;;;;;13.60;11.30;;;12.10;99.90;;;;;;4975052;28;22127;-66
2021/09/25 03:57:23;;;;;;;16.40;12.63;;;12.00;99.90;;;;;;4983851;28;20176;-66
2021/09/25 03:59:48;;;;;;;13.90;12.30;;;12.00;99.90;;;;;;4994330;28;20179;-66
2021/09/25 04:02:14;;;;;;;14.63;11.07;;;11.90;99.90;;;;;;4993839;28;20202;-66
2021/09/25 04:04:39;;;;;;;14.57;11.50;;;12.00;99.90;;;;;;4992287;28;20179;-66
2021/09/25 04:07:05;;;;;;;13.07;10.40;;;11.90;99.90;;;;;;4993688;28;20259;-66
2021/09/25 04:09:31;;;;;;;11.00;9.90;;;11.90;99.90;;;;;;4993623;28;20184;-66
2021/09/25 04:11:56;;;;;;;15.30;11.00;;;11.90;99.90;;;;;;4992379;28;20203;-66
2021/09/25 04:14:23;;;;;;;13.17;10.60;;;11.90;99.90;;;;;;4993519;28;20222;-67
2021/09/25 04:16:49;;;;;;;11.13;9.13;;;11.90;99.90;;;;;;4993598;28;20253;-66
2021/09/25 04:19:15;;;;;;;10.27;9.30;;;11.90;99.90;;;;;;4993305;28;20958;-66
2021/09/25 04:21:42;;;;;;;12.13;10.73;;;11.90;99.90;;;;;;4993396;28;20468;-66
2021/09/25 04:24:07;;;;;;;11.40;10.20;;;11.90;99.90;;;;;;4993501;28;20667;-66
2021/09/25 04:26:33;;;;;;;13.03;10.43;;;11.90;99.90;;;;;;4993281;28;20423;-66
2021/09/25 04:28:59;;;;;;;12.40;10.43;;;11.80;99.90;;;;;;4992691;28;20184;-66
2021/09/25 04:31:25;;;;;;;11.23;9.57;;;11.70;99.90;;;;;;4993253;28;20187;-66
2021/09/25 04:33:51;;;;;;;10.57;9.47;;;11.80;99.90;;;;;;4993676;28;20195;-66
2021/09/25 04:36:16;;;;;;;10.10;8.10;;;11.80;99.90;;;;;;4992975;28;20458;-67
2021/09/25 04:38:42;;;;;;;10.67;8.63;;;11.80;99.90;;;;;;4992924;28;20656;-66
2021/09/25 04:41:07;;;;;;;12.60;9.17;;;11.60;99.90;;;;;;4992849;28;20229;-66
2021/09/25 04:43:34;;;;;;;8.93;8.13;;;11.60;99.90;;;;;;4978149;28;20202;-66
2021/09/25 04:46:00;;;;;;;10.07;9.17;;;11.60;99.90;;;;;;4993402;28;20247;-66
2021/09/25 04:48:25;;;;;;;10.60;9.53;;;11.60;99.90;;;;;;4992966;28;20457;-66
2021/09/25 04:50:51;;;;;;;9.90;8.60;;;11.70;99.90;;;;;;4993060;28;20437;-66
2021/09/25 04:53:17;;;;;;;12.23;9.03;;;11.70;99.90;;;;;;4992949;28;20195;-66
2021/09/25 04:55:44;;;;;;;11.40;9.27;;;11.60;99.90;;;;;;4993204;28;20199;-66
2021/09/25 04:58:10;;;;;;;10.10;9.20;;;11.60;99.90;;;;;;4992222;28;20190;-66
2021/09/25 05:00:35;;;;;;;10.23;8.87;;;11.70;99.90;;;;;;4993289;28;20407;-67
2021/09/25 05:03:02;;;;;;;10.77;8.57;;;11.60;99.90;;;;;;4992372;28;20442;-66
2021/09/25 05:05:27;;;;;;;9.10;8.20;;;11.60;99.90;;;;;;4992818;28;20241;-66
2021/09/25 05:07:53;;;;;;;11.00;9.50;;;11.60;99.90;;;;;;4992543;28;20415;-66
2021/09/25 05:10:19;;;;;;;11.47;9.47;;;11.60;99.90;;;;;;4973788;28;20169;-66
2021/09/25 05:12:45;;;;;;;9.97;8.97;;;11.50;99.90;;;;;;4986219;28;20200;-66
2021/09/25 05:15:12;;;;;;;9.40;8.50;;;11.50;99.90;;;;;;4992813;28;20250;-67
2021/09/25 05:17:37;;;;;;;9.93;8.30;;;11.50;99.90;;;;;;4991303;28;20553;-66
2021/09/25 05:20:05;;;;;;;9.63;8.63;;;11.50;99.90;;;;;;4992808;28;20502;-66
2021/09/25 05:22:32;;;;;;;12.60;8.37;;;11.50;99.90;;;;;;4992897;28;20191;-66
2021/09/25 05:24:57;;;;;;;9.60;8.13;;;11.60;99.90;;;;;;4992430;28;20492;-66
2021/09/25 05:27:23;;;;;;;8.73;7.80;;;11.50;99.90;;;;;;4992342;28;20509;-66
2021/09/25 05:29:48;;;;;;;10.53;8.80;;;11.50;99.90;;;;;;4992246;28;20219;-66
2021/09/25 05:32:14;;;;;;;11.40;9.07;;;11.50;99.90;;;;;;4992690;28;20289;-66
2021/09/25 05:34:42;;;;;;;9.10;7.87;;;11.50;99.90;;;;;;4992371;28;20182;-66
2021/09/25 05:37:08;;;;;;;9.03;8.13;;;11.50;99.90;;;;;;4992853;28;20183;-67
2021/09/25 05:39:34;;;;;;;8.80;8.00;;;11.60;99.90;;;;;;4992198;28;20427;-67
2021/09/25 05:41:59;;;;;;;9.40;8.50;;;11.60;99.90;;;;;;4992603;28;20827;-66
2021/09/25 05:44:25;;;;;;;12.53;11.00;;;11.70;99.90;;;;;;4992171;28;20179;-66
2021/09/25 05:46:51;;;;;;;11.50;9.50;;;11.70;99.90;;;;;;4991985;28;20192;-66
2021/09/25 05:49:16;;;;;;;12.87;8.63;;;11.80;99.90;;;;;;4991916;28;20646;-66
2021/09/25 05:51:42;;;;;;;10.97;8.43;;;12.00;99.90;;;;;;4992097;28;20179;-66
2021/09/25 05:54:07;;;;;;;9.70;8.50;;;12.10;99.90;;;;;;4992024;28;20306;-67
2021/09/25 05:56:34;;;;;;;10.10;8.30;;;12.20;99.90;;;;;;4991972;28;20733;-67
2021/09/25 05:58:59;;;;;;;14.77;9.37;;;12.30;99.90;;;;;;4991696;28;20202;-66
2021/09/25 06:01:25;;;;;;;10.57;9.33;;;12.50;99.90;;;;;;4974725;28;20447;-66
2021/09/25 06:03:50;;;;;;;9.57;8.67;;;12.60;99.90;;;;;;4976569;28;20195;-66
2021/09/25 06:06:16;;;;;;;10.50;9.40;;;12.70;99.90;;;;;;4993066;28;20187;-67
2021/09/25 06:08:41;;;;;;;10.10;8.37;;;12.80;99.90;;;;;;4995487;28;20238;-67
2021/09/25 06:11:07;;;;;;;10.07;8.80;;;12.90;99.90;;;;;;4996171;28;20668;-66
2021/09/25 06:13:32;;;;;;;8.77;7.90;;;13.00;99.90;;;;;;4995705;28;20214;-67
2021/09/25 06:15:58;;;;;;;9.57;8.67;;;13.10;99.90;;;;;;4994991;28;20203;-68
2021/09/25 06:18:23;;;;;;;9.80;8.80;;;13.20;99.90;;;;;;4995480;28;20180;-66
2021/09/25 06:20:49;;;;;;;8.87;8.00;;;13.30;99.90;;;;;;4995810;28;20262;-66
2021/09/25 06:23:15;;;;;;;9.90;8.13;;;13.40;99.90;;;;;;4995424;28;20582;-66
2021/09/25 06:25:40;;;;;;;9.77;8.47;;;13.50;99.90;;;;;;4995905;28;20254;-66
2021/09/25 06:28:06;;;;;;;10.67;7.90;;;13.50;99.90;;;;;;4994435;28;20552;-66
2021/09/25 06:30:32;;;;;;;10.70;9.60;;;13.60;99.90;;;;;;4994972;28;20258;-66
2021/09/25 06:32:59;;;;;;;10.30;9.27;;;13.80;99.90;;;;;;4995457;28;20207;-67
2021/09/25 06:35:25;;;;;;;8.33;7.53;;;14.10;99.90;;;;;;4993833;28;20462;-66
2021/09/25 06:37:50;;;;;;;9.50;8.63;;;14.30;99.90;;;;;;4993849;28;20431;-66
2021/09/25 06:40:16;;;;;;;9.77;8.77;;;14.50;99.90;;;;;;4990913;28;20172;-66
2021/09/25 06:42:42;;;;;;;11.17;9.00;;;14.60;99.90;;;;;;4993183;28;20227;-66
2021/09/25 06:45:08;;;;;;;10.47;9.40;;;14.60;99.90;;;;;;4995353;28;20655;-67
2021/09/25 06:47:34;;;;;;;9.70;8.87;;;14.50;99.90;;;;;;4995125;28;20422;-67
2021/09/25 06:50:01;;;;;;;11.80;9.43;;;14.60;99.90;;;;;;4995270;28;20433;-67
2021/09/25 06:52:27;;;;;;;15.43;10.57;;;14.60;99.90;;;;;;4994945;28;20454;-66
2021/09/25 06:54:53;;;;;;;12.97;10.53;;;14.80;99.90;;;;;;4995016;28;20431;-67
2021/09/25 06:57:18;;;;;;;10.37;9.47;;;15.20;99.90;;;;;;4995058;28;20485;-66
2021/09/25 06:59:44;;;;;;;11.00;9.40;;;15.50;99.90;;;;;;4995042;28;20171;-66
2021/09/25 07:02:09;;;;;;;10.10;9.20;;;15.80;99.90;;;;;;4995025;28;20241;-67
2021/09/25 07:04:36;;;;;;;10.77;9.87;;;16.00;99.90;;;;;;4993464;28;20523;-66
2021/09/25 07:07:02;;;;;;;13.10;10.73;;;16.20;99.90;;;;;;5002988;28;20580;-66
2021/09/25 07:09:27;;;;;;;9.87;8.87;;;16.40;99.90;;;;;;5014316;28;20433;-66
2021/09/25 07:11:53;;;;;;;9.67;8.67;;;16.50;99.90;;;;;;5002064;28;20563;-66
2021/09/25 07:14:19;;;;;;;9.17;8.27;;;16.80;99.90;;;;;;5011651;28;20185;-66
2021/09/25 07:16:45;;;;;;;10.63;7.87;;;17.10;99.90;;;;;;4996737;28;20227;-66
2021/09/25 07:19:11;;;;;;;10.93;9.83;;;17.30;99.90;;;;;;5002353;28;20200;-66
2021/09/25 07:21:37;;;;;;;9.20;8.30;;;17.50;99.90;;;;;;4999735;28;20522;-66
2021/09/25 07:24:02;;;;;;;9.30;7.97;;;17.80;99.90;;;;;;5005408;28;20172;-66
2021/09/25 07:26:28;;;;;;;8.60;7.77;;;18.10;99.90;;;;;;4990231;28;20223;-66
2021/09/25 07:28:54;;;;;;;9.43;7.50;;;18.40;99.90;;;;;;4994329;28;20182;-66
2021/09/25 07:31:19;;;;;;;7.07;6.37;;;18.50;99.90;;;;;;4995848;28;20188;-67
2021/09/25 07:33:45;;;;;;;7.60;6.90;;;18.70;99.90;;;;;;5009462;28;20210;-66
2021/09/25 07:36:11;;;;;;;7.00;6.40;;;18.90;99.90;;;;;;5001827;28;20272;-66
2021/09/25 07:38:36;;;;;;;7.20;6.60;;;19.10;99.90;;;;;;5006149;28;20172;-66
2021/09/25 07:41:02;;;;;;;8.00;7.20;;;19.30;99.90;;;;;;5009142;28;20437;-66
2021/09/25 07:43:28;;;;;;;7.60;6.90;;;19.60;99.90;;;;;;5009386;28;20202;-66
2021/09/25 07:45:57;;;;;;;8.60;7.43;;;19.80;99.90;;;;;;4994055;28;20818;-67
2021/09/25 07:48:24;;;;;;;7.40;6.70;;;20.00;99.90;;;;;;4992907;28;20302;-66
2021/09/25 07:50:50;;;;;;;7.63;6.67;;;20.30;99.90;;;;;;4993376;28;20465;-66
2021/09/25 07:53:16;;;;;;;8.27;7.57;;;20.50;99.90;;;;;;4993969;28;20450;-66
2021/09/25 07:55:42;;;;;;;6.40;5.90;;;20.80;99.90;;;;;;4991087;28;20454;-64
2021/09/25 07:58:08;;;;;;;7.13;6.43;;;21.00;99.90;;;;;;4993812;28;20418;-65
2021/09/25 08:00:35;;;;;;;7.13;6.43;;;21.10;99.90;;;;;;4993913;28;20218;-64
2021/09/25 08:03:01;;;;;;;6.47;5.97;;;21.20;99.90;;;;;;4994052;28;20445;-65
2021/09/25 08:05:27;;;;;;;6.50;6.00;;;21.20;99.90;;;;;;4993694;28;20442;-65
2021/09/25 08:07:52;;;;;;;6.73;6.13;;;21.40;99.90;;;;;;4993089;28;20929;-66
2021/09/25 08:10:18;;;;;;;5.90;5.47;;;21.60;99.90;;;;;;4993486;28;20183;-66
2021/09/25 08:12:44;;;;;;;9.03;6.77;;;21.90;99.90;;;;;;4993320;28;20253;-66
2021/09/25 08:15:11;;;;;;;7.40;6.40;;;22.40;99.90;;;;;;4993547;28;20206;-66
2021/09/25 08:17:37;;;;;;;6.73;5.37;;;23.00;99.90;;;;;;4993102;28;20474;-66
2021/09/25 08:20:06;;;;;;;6.03;5.53;;;23.10;99.90;;;;;;4993507;28;20415;-67
2021/09/25 08:22:32;;;;;;;6.40;5.90;;;23.30;99.90;;;;;;4993541;28;20538;-66
2021/09/25 08:24:57;;;;;;;6.83;6.23;;;23.60;99.90;;;;;;4992891;28;20438;-66
2021/09/25 08:27:23;;;;;;;6.43;5.90;;;23.90;99.90;;;;;;4992841;28;20439;-66
2021/09/25 08:29:49;;;;;;;6.10;5.60;;;24.30;99.90;;;;;;4991632;28;20250;-67
2021/09/25 08:32:14;;;;;;;5.90;5.50;;;24.80;99.90;;;;;;4993235;28;20211;-67
2021/09/25 08:34:40;;;;;;;6.40;5.90;;;24.60;99.30;;;;;;4993079;28;20171;-66
2021/09/25 08:37:06;;;;;;;6.00;5.50;;;24.90;99.30;;;;;;4993228;28;20207;-67
2021/09/25 08:39:33;;;;;;;6.03;5.53;;;25.50;98.60;;;;;;4993020;28;20168;-66
2021/09/25 08:42:00;;;;;;;5.93;5.43;;;25.80;97.70;;;;;;4993187;28;20442;-67
2021/09/25 08:44:25;;;;;;;6.30;5.70;;;25.80;96.80;;;;;;4993112;28;20423;-67
2021/09/25 08:46:53;;;;;;;6.10;5.60;;;25.80;96.70;;;;;;4993136;28;20427;-67
2021/09/25 08:49:18;;;;;;;5.87;5.37;;;26.00;96.10;;;;;;4992847;28;20219;-67
2021/09/25 08:51:44;;;;;;;6.20;5.70;;;26.90;94.80;;;;;;4993021;28;20423;-67
2021/09/25 08:54:10;;;;;;;5.93;5.43;;;27.80;93.50;;;;;;4993101;28;20225;-67
2021/09/25 08:56:37;;;;;;;5.67;4.80;;;28.60;91.40;;;;;;4991793;28;20696;-67
2021/09/25 08:59:02;;;;;;;6.07;5.67;;;28.80;90.40;;;;;;4991505;28;20230;-69
2021/09/25 09:01:28;;;;;;;5.73;5.20;;;29.70;86.60;;;;;;4992915;28;20920;-69
2021/09/25 09:03:55;;;;;;;5.73;5.20;;;30.00;82.60;;;;;;4992920;28;20218;-67
2021/09/25 09:06:22;;;;;;;5.83;5.40;;;29.60;80.60;;;;;;4992827;28;20454;-67
2021/09/25 09:08:51;;;;;;;6.53;6.10;;;29.40;79.60;;;;;;4991349;28;21234;-68
2021/09/25 09:11:18;;;;;;;8.53;6.57;;;30.10;76.90;;;;;;4992834;28;20419;-69
2021/09/25 09:13:46;;;;;;;6.33;5.80;;;28.80;78.10;;;;;;4992738;28;20439;-67
2021/09/25 09:16:13;;;;;;;5.70;5.30;;;29.10;77.10;;;;;;4992775;28;20484;-68
2021/09/25 09:18:43;;;;;;;7.30;5.70;;;28.40;77.30;;;;;;4992478;28;20419;-69
2021/09/25 09:21:08;;;;;;;6.47;5.83;;;27.30;79.80;;;;;;4992726;28;20418;-68
2021/09/25 09:23:36;;;;;;;6.47;5.97;;;27.10;82.80;;;;;;4992654;28;20449;-70
2021/09/25 09:26:03;;;;;;;8.33;6.27;;;27.50;81.50;;;;;;4992674;28;20186;-69
2021/09/25 09:28:31;;;;;;;6.73;6.13;;;28.10;81.20;;;;;;4992411;28;20446;-68
2021/09/25 09:30:59;;;;;;;8.43;6.03;;;28.70;80.40;;;;;;4992425;28;20461;-67
2021/09/25 09:33:28;;;;;;;6.77;6.13;;;28.50;79.00;;;;;;4992123;28;20470;-68
2021/09/25 09:36:09;;;;;;;6.30;5.80;;;28.20;78.40;;;;;;4992043;28;20997;-67
2021/09/25 09:38:41;;;;;;;6.13;5.50;;;27.70;79.80;;;;;;4995635;28;20490;-66
2021/09/25 09:41:07;;;;;;;6.37;5.80;;;29.90;77.80;;;;;;4996646;28;20419;-68
2021/09/25 09:43:32;;;;;;;6.80;5.83;;;30.70;72.10;;;;;;4996420;28;20504;-67
2021/09/25 09:45:58;;;;;;;6.70;6.10;;;31.80;69.50;;;;;;4996485;28;20222;-68
2021/09/25 09:48:23;;;;;;;6.23;5.83;;;33.20;63.80;;;;;;4996223;28;20254;-68
2021/09/25 09:50:50;;;;;;;5.20;4.90;;;33.40;62.70;;;;;;4996532;28;20172;-67
2021/09/25 09:53:16;;;;;;;5.00;4.70;;;34.50;58.50;;;;;;4996403;28;20278;-68
2021/09/25 09:55:42;;;;;;;5.83;5.43;;;35.40;56.70;;;;;;4996297;28;20545;-70
2021/09/25 09:58:08;;;;;;;5.97;5.47;;;35.80;54.60;;;;;;4995984;28;20174;-66
2021/09/25 10:00:37;;;;;;;6.40;5.80;;;35.60;54.00;;;;;;4996089;28;20187;-66
2021/09/25 10:03:03;;;;;;;5.87;5.47;;;34.80;53.90;;;;;;4996045;28;20827;-66
2021/09/25 10:05:29;;;;;;;5.50;5.10;;;34.30;55.30;;;;;;4996200;28;20455;-66
2021/09/25 10:07:54;;;;;;;5.80;5.40;;;35.50;53.50;;;;;;4995917;28;20171;-66
2021/09/25 10:10:22;;;;;;;6.10;5.60;;;34.10;53.60;;;;;;4996006;28;20179;-66
2021/09/25 10:12:48;;;;;;;6.20;5.70;;;33.70;54.30;;;;;;4996172;28;20212;-66
2021/09/25 10:15:15;;;;;;;6.23;5.83;;;33.70;55.20;;;;;;4996020;28;21227;-66
2021/09/25 10:17:42;;;;;;;5.93;5.53;;;34.60;53.90;;;;;;4991115;28;20443;-66
2021/09/25 10:20:09;;;;;;;6.60;6.00;;;35.20;52.70;;;;;;4995733;28;21020;-66
2021/09/25 10:22:36;;;;;;;6.40;6.00;;;36.50;51.70;;;;;;4995839;28;20501;-67
2021/09/25 10:25:08;;;;;;;5.67;5.30;;;35.50;51.90;;;;;;4995910;28;20489;-69
2021/09/25 10:27:36;;;;;;;6.53;5.93;;;37.00;50.80;;;;;;4995457;28;20426;-67
2021/09/25 10:30:04;;;;;;;6.10;5.70;;;36.40;50.90;;;;;;4995415;28;20434;-67
2021/09/25 10:32:48;;;;;;;5.60;5.30;;;37.30;49.90;;;;;;4985205;28;20462;-66
2021/09/25 10:35:20;;;;;;;6.30;5.90;;;38.80;48.30;;;;;;4995538;28;20537;-66
2021/09/25 10:37:55;;;;;;;7.00;6.07;;;39.20;46.50;;;;;;4995233;28;20449;-67
2021/09/25 10:40:23;;;;;;;6.30;5.93;;;39.50;45.40;;;;;;4995686;28;20924;-67
2021/09/25 10:42:52;;;;;;;5.63;5.27;;;39.20;45.60;;;;;;4995497;28;20442;-67
2021/09/25 10:45:31;;;;;;;6.20;5.63;;;38.50;45.20;;;;;;4995426;28;20791;-67
2021/09/25 10:48:27;;;;;;;5.07;4.77;;;36.20;46.40;;;;;;4993630;28;20423;-67
2021/09/25 10:50:57;;;;;;;4.87;4.57;;;36.30;46.90;;;;;;4990915;28;20424;-67
2021/09/25 10:53:25;;;;;;;5.63;5.30;;;34.60;48.00;;;;;;4980853;28;20455;-67
2021/09/25 10:55:54;;;;;;;6.40;6.00;;;36.00;48.40;;;;;;4995208;28;20454;-67
2021/09/25 10:58:23;;;;;;;5.90;5.40;;;38.30;46.30;;;;;;4994848;28;20410;-67
2021/09/25 11:01:02;;;;;;;5.27;4.80;;;37.00;45.30;;;;;;4995122;28;20445;-66
2021/09/25 11:03:43;;;;;;;5.73;5.43;;;35.30;47.40;;;;;;4994757;28;20454;-67
2021/09/25 11:06:23;;;;;;;6.27;5.67;;;34.40;49.20;;;;;;4993271;28;20469;-66
2021/09/25 11:09:02;;;;;;;5.17;4.87;;;34.10;49.40;;;;;;4993335;28;20786;-67
2021/09/25 11:11:42;;;;;;;4.87;4.60;;;35.60;49.00;;;;;;4994999;28;20793;-68
2021/09/25 11:14:08;;;;;;;5.80;5.40;;;37.70;46.40;;;;;;4995192;28;20426;-67
2021/09/25 11:16:53;;;;;;;5.70;5.30;;;36.50;46.60;;;;;;4994842;28;20538;-67
2021/09/25 11:19:22;;;;;;;5.23;4.93;;;37.00;46.80;;;;;;4992929;28;20443;-67
2021/09/25 11:21:58;;;;;;;6.10;5.50;;;37.70;46.10;;;;;;4993041;28;20462;-67
2021/09/25 11:24:25;;;;;;;6.13;5.73;;;39.90;44.40;;;;;;4975346;28;20419;-67
2021/09/25 11:26:51;;;;;;;5.57;5.17;;;41.30;42.50;;;;;;4975341;28;20419;-67
2021/09/25 11:29:17;;;;;;;5.43;5.03;;;41.60;41.60;;;;;;4974865;28;20488;-67
2021/09/25 11:31:48;;;;;;;6.40;6.00;;;38.70;42.50;;;;;;4975029;28;20259;-67
2021/09/25 11:34:26;;;;;;;6.03;5.63;;;37.70;44.00;;;;;;4975239;28;20853;-67
2021/09/25 11:36:52;;;;;;;8.97;8.23;;;37.00;44.70;;;;;;4987424;28;20454;-68
2021/09/25 11:39:34;;;;;;;5.97;5.57;;;37.90;44.70;;;;;;4993709;28;20485;-67
2021/09/25 11:42:23;;;;;;;6.30;5.80;;;39.80;43.00;;;;;;4994455;28;20431;-67
2021/09/25 11:44:59;;;;;;;4.83;4.47;;;40.30;42.10;;;;;;4994310;28;20762;-67
2021/09/25 11:47:35;;;;;;;4.57;4.27;;;39.90;41.20;;;;;;4994082;28;20414;-68
2021/09/25 11:50:17;;;;;;;5.67;5.27;;;40.90;41.40;;;;;;4994322;28;20424;-68
2021/09/25 11:52:46;;;;;;;5.07;4.67;;;42.70;39.80;;;;;;4993976;28;20438;-68
2021/09/25 11:55:12;;;;;;;4.67;4.43;;;43.00;38.70;;;;;;4994105;28;20407;-68
2021/09/25 11:57:38;;;;;;;4.53;4.23;;;42.30;39.00;;;;;;4993291;28;20425;-68
2021/09/25 12:00:36;;;;;;;5.40;5.10;;;42.70;37.90;;;;;;4989717;28;20435;-68
2021/09/25 12:03:07;;;;;;;5.90;5.40;;;43.30;37.50;;;;;;4985722;28;20198;-68
2021/09/25 12:05:52;;;;;;;5.13;4.83;;;43.80;37.00;;;;;;4993453;28;20509;-68
2021/09/25 12:08:26;;;;;;;5.37;4.87;;;43.60;36.70;;;;;;4993591;28;20418;-68
2021/09/25 12:11:00;;;;;;;5.27;4.97;;;44.20;36.30;;;;;;4993844;28;20418;-68
2021/09/25 12:13:31;;;;;;;5.50;5.10;;;45.40;35.30;;;;;;4992816;28;20458;-66
2021/09/25 12:16:07;;;;;;;4.57;4.37;;;45.50;34.90;;;;;;4993445;28;20466;-65
2021/09/25 12:18:35;;;;;;;4.50;4.30;;;45.30;35.90;;;;;;4993324;28;20418;-65
2021/09/25 12:21:08;;;;;;;4.20;3.90;;;44.00;36.60;;;;;;4992894;28;20424;-68
2021/09/25 12:23:41;;;;;;;4.57;4.37;;;43.80;38.30;;;;;;4986480;28;20230;-69
2021/09/25 12:26:18;;;;;;;4.53;4.33;;;43.50;38.70;;;;;;4993622;28;20506;-68
2021/09/25 12:28:51;;;;;;;4.93;4.63;;;41.90;39.70;;;;;;4993379;28;20427;-68
2021/09/25 12:31:20;;;;;;;5.10;4.80;;;42.60;37.80;;;;;;4993307;28;20463;-69
2021/09/25 12:34:00;;;;;;;4.77;4.47;;;41.30;37.90;;;;;;4993500;28;20985;-69
2021/09/25 12:36:28;;;;;;;4.90;4.60;;;41.90;37.70;;;;;;4993117;28;20497;-69
2021/09/25 12:38:59;;;;;;;4.90;4.63;;;43.60;37.10;;;;;;4992413;28;21106;-69
2021/09/25 12:41:26;;;;;;;4.60;4.33;;;41.40;37.00;;;;;;4981958;28;20427;-69
2021/09/25 12:43:56;;;;;;;4.10;3.80;;;41.40;38.10;;;;;;4992284;28;20454;-69